sensor_id;sensor_type;location;lat;lon;timestamp;pressure;altitude;pressure_sealevel;temperature;humidity
17615;BME280;8926;49.720;6.576;2023-01-27T00:01:29;100191.22;;;2.52;89.89
17615;BME280;8926;49.720;6.576;2023-01-27T00:03:55;100190.34;;;2.53;89.62
17615;BME280;8926;49.720;6.576;2023-01-27T00:06:20;100184.38;;;2.51;90.13
17615;BME280;8926;49.720;6.576;2023-01-27T00:08:45;100187.81;;;2.50;89.26
17615;BME280;8926;49.720;6.576;2023-01-27T00:11:11;100187.88;;;2.47;90.01
17615;BME280;8926;49.720;6.576;2023-01-27T00:13:54;100192.97;;;2.50;89.95
17615;BME280;8926;49.720;6.576;2023-01-27T00:16:20;100180.09;;;2.50;90.22
17615;BME280;8926;49.720;6.576;2023-01-27T00:18:45;100193.03;;;2.47;89.74
17615;BME280;8926;49.720;6.576;2023-01-27T00:21:10;100189.59;;;2.47;89.83
17615;BME280;8926;49.720;6.576;2023-01-27T00:23:54;100192.19;;;2.45;90.22
17615;BME280;8926;49.720;6.576;2023-01-27T00:26:38;100189.56;;;2.48;90.29
17615;BME280;8926;49.720;6.576;2023-01-27T00:29:04;100180.06;;;2.52;89.68
17615;BME280;8926;49.720;6.576;2023-01-27T00:31:29;100181.84;;;2.48;89.52
17615;BME280;8926;49.720;6.576;2023-01-27T00:34:13;100181.81;;;2.50;89.74
17615;BME280;8926;49.720;6.576;2023-01-27T00:36:40;100178.31;;;2.54;90.43
17615;BME280;8926;49.720;6.576;2023-01-27T00:39:08;100177.47;;;2.53;89.76
17615;BME280;8926;49.720;6.576;2023-01-27T00:41:33;100175.75;;;2.52;89.34
17615;BME280;8926;49.720;6.576;2023-01-27T00:43:59;100174.00;;;2.54;89.81
17615;BME280;8926;49.720;6.576;2023-01-27T00:46:25;100182.56;;;2.56;90.11
17615;BME280;8926;49.720;6.576;2023-01-27T00:48:50;100180.00;;;2.56;89.51
17615;BME280;8926;49.720;6.576;2023-01-27T00:51:16;100170.56;;;2.55;89.59
17615;BME280;8926;49.720;6.576;2023-01-27T00:53:42;100171.50;;;2.50;89.43
17615;BME280;8926;49.720;6.576;2023-01-27T00:56:08;100168.91;;;2.51;89.46
17615;BME280;8926;49.720;6.576;2023-01-27T00:58:34;100173.19;;;2.52;90.25
17615;BME280;8926;49.720;6.576;2023-01-27T01:01:01;100173.22;;;2.49;89.96
17615;BME280;8926;49.720;6.576;2023-01-27T01:03:29;100172.31;;;2.53;89.67
17615;BME280;8926;49.720;6.576;2023-01-27T01:05:58;100173.16;;;2.54;90.13
17615;BME280;8926;49.720;6.576;2023-01-27T01:08:24;100163.69;;;2.54;90.31
17615;BME280;8926;49.720;6.576;2023-01-27T01:10:49;100174.84;;;2.56;89.69
17615;BME280;8926;49.720;6.576;2023-01-27T01:13:15;100175.72;;;2.55;89.60
17615;BME280;8926;49.720;6.576;2023-01-27T01:15:40;100180.88;;;2.55;90.40
17615;BME280;8926;49.720;6.576;2023-01-27T01:18:07;100180.03;;;2.53;90.07
17615;BME280;8926;49.720;6.576;2023-01-27T01:20:37;100185.16;;;2.55;89.77
17615;BME280;8926;49.720;6.576;2023-01-27T01:23:04;100180.81;;;2.58;90.33
17615;BME280;8926;49.720;6.576;2023-01-27T01:25:30;100187.63;;;2.61;89.82
17615;BME280;8926;49.720;6.576;2023-01-27T01:27:55;100187.59;;;2.62;90.19
17615;BME280;8926;49.720;6.576;2023-01-27T01:30:21;100188.47;;;2.61;89.35
17615;BME280;8926;49.720;6.576;2023-01-27T01:32:50;100180.78;;;2.60;89.76
17615;BME280;8926;49.720;6.576;2023-01-27T01:35:15;100186.78;;;2.60;90.19
17615;BME280;8926;49.720;6.576;2023-01-27T01:37:40;100187.69;;;2.59;90.13
17615;BME280;8926;49.720;6.576;2023-01-27T01:40:06;100192.75;;;2.62;91.15
17615;BME280;8926;49.720;6.576;2023-01-27T01:42:52;100193.59;;;2.63;90.04
17615;BME280;8926;49.720;6.576;2023-01-27T01:47:58;100191.16;;;2.57;90.08
17615;BME280;8926;49.720;6.576;2023-01-27T01:50:24;100186.03;;;2.55;90.07
17615;BME280;8926;49.720;6.576;2023-01-27T01:52:50;100182.63;;;2.53;90.06
17615;BME280;8926;49.720;6.576;2023-01-27T01:55:17;100175.72;;;2.55;90.50
17615;BME280;8926;49.720;6.576;2023-01-27T01:57:42;100188.63;;;2.54;90.14
17615;BME280;8926;49.720;6.576;2023-01-27T02:00:09;100188.66;;;2.52;90.43
17615;BME280;8926;49.720;6.576;2023-01-27T02:02:36;100189.53;;;2.51;90.14
17615;BME280;8926;49.720;6.576;2023-01-27T02:05:06;100186.09;;;2.51;90.30
17615;BME280;8926;49.720;6.576;2023-01-27T02:09:59;100178.34;;;2.52;90.09
17615;BME280;8926;49.720;6.576;2023-01-27T02:12:24;100179.19;;;2.53;90.48
17615;BME280;8926;49.720;6.576;2023-01-27T02:14:50;100183.47;;;2.54;89.93
17615;BME280;8926;49.720;6.576;2023-01-27T02:17:15;100185.97;;;2.58;89.94
17615;BME280;8926;49.720;6.576;2023-01-27T02:22:46;100170.53;;;2.57;90.15
17615;BME280;8926;49.720;6.576;2023-01-27T02:27:58;100168.78;;;2.57;90.15
17615;BME280;8926;49.720;6.576;2023-01-27T02:30:24;100176.50;;;2.59;90.17
17615;BME280;8926;49.720;6.576;2023-01-27T02:32:49;100172.13;;;2.62;90.59
17615;BME280;8926;49.720;6.576;2023-01-27T02:35:19;100170.41;;;2.61;90.25
17615;BME280;8926;49.720;6.576;2023-01-27T02:37:47;100172.16;;;2.61;89.92
17615;BME280;8926;49.720;6.576;2023-01-27T02:40:14;100167.91;;;2.58;90.14
17615;BME280;8926;49.720;6.576;2023-01-27T02:42:40;100173.97;;;2.57;89.80
17615;BME280;8926;49.720;6.576;2023-01-27T02:45:06;100169.56;;;2.61;90.02
17615;BME280;8926;49.720;6.576;2023-01-27T02:47:31;100173.97;;;2.57;89.34
17615;BME280;8926;49.720;6.576;2023-01-27T02:49:56;100179.09;;;2.59;89.75
17615;BME280;8926;49.720;6.576;2023-01-27T02:52:22;100177.34;;;2.59;90.23
17615;BME280;8926;49.720;6.576;2023-01-27T02:54:47;100180.91;;;2.52;90.00
17615;BME280;8926;49.720;6.576;2023-01-27T02:57:12;100174.06;;;2.51;90.42
17615;BME280;8926;49.720;6.576;2023-01-27T02:59:38;100179.16;;;2.54;90.75
17615;BME280;8926;49.720;6.576;2023-01-27T03:02:03;100177.41;;;2.56;90.38
17615;BME280;8926;49.720;6.576;2023-01-27T03:04:28;100174.84;;;2.56;90.18
17615;BME280;8926;49.720;6.576;2023-01-27T03:06:54;100175.72;;;2.55;89.81
17615;BME280;8926;49.720;6.576;2023-01-27T03:09:19;100179.16;;;2.54;90.89
17615;BME280;8926;49.720;6.576;2023-01-27T03:11:44;100174.00;;;2.54;90.62
17615;BME280;8926;49.720;6.576;2023-01-27T03:14:28;100186.84;;;2.57;91.41
17615;BME280;8926;49.720;6.576;2023-01-27T03:17:12;100180.81;;;2.58;90.61
17615;BME280;8926;49.720;6.576;2023-01-27T03:19:56;100173.84;;;2.62;90.88
17615;BME280;8926;49.720;6.576;2023-01-27T03:22:22;100178.97;;;2.63;90.91
17615;BME280;8926;49.720;6.576;2023-01-27T03:24:47;100177.34;;;2.59;91.13
17615;BME280;8926;49.720;6.576;2023-01-27T03:27:12;100180.81;;;2.58;90.87
17615;BME280;8926;49.720;6.576;2023-01-27T03:29:38;100184.28;;;2.57;90.89
17615;BME280;8926;49.720;6.576;2023-01-27T03:32:24;100175.75;;;2.52;91.37
17615;BME280;8926;49.720;6.576;2023-01-27T03:34:50;100174.03;;;2.53;91.09
17615;BME280;8926;49.720;6.576;2023-01-27T03:37:15;100177.50;;;2.50;91.16
17615;BME280;8926;49.720;6.576;2023-01-27T03:39:59;100177.56;;;2.47;90.47
17615;BME280;8926;49.720;6.576;2023-01-27T03:42:42;100173.16;;;2.54;91.58
17615;BME280;8926;49.720;6.576;2023-01-27T03:45:26;100173.97;;;2.56;91.17
17615;BME280;8926;49.720;6.576;2023-01-27T03:48:11;100178.28;;;2.55;91.34
17615;BME280;8926;49.720;6.576;2023-01-27T03:50:37;100183.41;;;2.58;91.53
17615;BME280;8926;49.720;6.576;2023-01-27T03:53:06;100170.56;;;2.55;91.55
17615;BME280;8926;49.720;6.576;2023-01-27T03:55:33;100172.25;;;2.56;91.62
17615;BME280;8926;49.720;6.576;2023-01-27T03:57:59;100177.41;;;2.56;90.94
17615;BME280;8926;49.720;6.576;2023-01-27T04:00:42;100184.28;;;2.57;91.33
17615;BME280;8926;49.720;6.576;2023-01-27T04:03:07;100176.53;;;2.57;91.31
17615;BME280;8926;49.720;6.576;2023-01-27T04:05:51;100175.66;;;2.58;91.95
17615;BME280;8926;49.720;6.576;2023-01-27T04:08:35;100176.44;;;2.60;91.94
17615;BME280;8926;49.720;6.576;2023-01-27T04:11:02;100179.00;;;2.62;91.49
17615;BME280;8926;49.720;6.576;2023-01-27T04:13:46;100179.78;;;2.67;91.34
17615;BME280;8926;49.720;6.576;2023-01-27T04:16:11;100171.19;;;2.66;91.47
17615;BME280;8926;49.720;6.576;2023-01-27T04:18:36;100177.19;;;2.68;91.90
17615;BME280;8926;49.720;6.576;2023-01-27T04:21:02;100182.38;;;2.65;92.08
17615;BME280;8926;49.720;6.576;2023-01-27T04:23:28;100182.38;;;2.65;91.63
17615;BME280;8926;49.720;6.576;2023-01-27T04:25:53;100191.84;;;2.65;91.81
17615;BME280;8926;49.720;6.576;2023-01-27T04:28:20;100178.94;;;2.66;91.48
17615;BME280;8926;49.720;6.576;2023-01-27T04:30:46;100180.63;;;2.67;91.70
17615;BME280;8926;49.720;6.576;2023-01-27T04:33:12;100174.56;;;2.70;91.77
17615;BME280;8926;49.720;6.576;2023-01-27T04:35:42;100180.59;;;2.70;91.80
17615;BME280;8926;49.720;6.576;2023-01-27T04:38:09;100187.53;;;2.65;91.23
17615;BME280;8926;49.720;6.576;2023-01-27T04:40:34;100183.19;;;2.69;91.90
17615;BME280;8926;49.720;6.576;2023-01-27T04:42:59;100176.31;;;2.69;91.80
17615;BME280;8926;49.720;6.576;2023-01-27T04:45:25;100178.88;;;2.69;90.95
17615;BME280;8926;49.720;6.576;2023-01-27T04:47:50;100186.69;;;2.65;91.51
17615;BME280;8926;49.720;6.576;2023-01-27T04:50:15;100189.25;;;2.66;91.66
17615;BME280;8926;49.720;6.576;2023-01-27T04:52:41;100183.28;;;2.63;91.90
17615;BME280;8926;49.720;6.576;2023-01-27T04:55:06;100183.28;;;2.63;91.51
17615;BME280;8926;49.720;6.576;2023-01-27T04:57:32;100184.13;;;2.63;91.64
17615;BME280;8926;49.720;6.576;2023-01-27T04:59:57;100184.13;;;2.63;92.26
17615;BME280;8926;49.720;6.576;2023-01-27T05:02:22;100192.75;;;2.62;92.43
17615;BME280;8926;49.720;6.576;2023-01-27T05:04:49;100187.59;;;2.62;92.78
17615;BME280;8926;49.720;6.576;2023-01-27T05:07:14;100184.13;;;2.65;93.52
17615;BME280;8926;49.720;6.576;2023-01-27T05:09:40;100192.69;;;2.65;93.02
17615;BME280;8926;49.720;6.576;2023-01-27T05:12:05;100187.59;;;2.62;93.43
17615;BME280;8926;49.720;6.576;2023-01-27T05:14:30;100191.00;;;2.64;94.18
17615;BME280;8926;49.720;6.576;2023-01-27T05:16:55;100203.88;;;2.66;93.75
17615;BME280;8926;49.720;6.576;2023-01-27T05:19:21;100208.97;;;2.69;93.18
17615;BME280;8926;49.720;6.576;2023-01-27T05:21:46;100208.06;;;2.71;93.96
17615;BME280;8926;49.720;6.576;2023-01-27T05:24:14;100202.91;;;2.73;94.13
17615;BME280;8926;49.720;6.576;2023-01-27T05:26:40;100211.53;;;2.70;94.34
17615;BME280;8926;49.720;6.576;2023-01-27T05:29:05;100205.47;;;2.73;94.02
17615;BME280;8926;49.720;6.576;2023-01-27T05:31:30;100211.44;;;2.77;94.49
17615;BME280;8926;49.720;6.576;2023-01-27T05:33:58;100213.19;;;2.75;94.36
17615;BME280;8926;49.720;6.576;2023-01-27T05:36:25;100214.00;;;2.77;94.08
17615;BME280;8926;49.720;6.576;2023-01-27T05:38:51;100220.00;;;2.79;94.16
17615;BME280;8926;49.720;6.576;2023-01-27T05:41:18;100217.34;;;2.83;94.38
17615;BME280;8926;49.720;6.576;2023-01-27T05:43:45;100213.81;;;2.87;95.02
17615;BME280;8926;49.720;6.576;2023-01-27T05:46:14;100216.34;;;2.89;94.70
17615;BME280;8926;49.720;6.576;2023-01-27T05:48:45;100218.09;;;2.88;94.23
17615;BME280;8926;49.720;6.576;2023-01-27T05:51:12;100218.13;;;2.87;93.68
17615;BME280;8926;49.720;6.576;2023-01-27T05:53:37;100217.22;;;2.89;94.04
17615;BME280;8926;49.720;6.576;2023-01-27T05:56:04;100221.53;;;2.89;93.29
17615;BME280;8926;49.720;6.576;2023-01-27T05:58:30;100225.78;;;2.91;93.14
17615;BME280;8926;49.720;6.576;2023-01-27T06:00:56;100231.75;;;2.95;93.57
17615;BME280;8926;49.720;6.576;2023-01-27T06:03:21;100236.06;;;2.94;93.41
17615;BME280;8926;49.720;6.576;2023-01-27T06:05:56;100228.28;;;2.96;93.09
17615;BME280;8926;49.720;6.576;2023-01-27T06:08:23;100231.69;;;2.98;92.72
17615;BME280;8926;49.720;6.576;2023-01-27T06:10:49;100234.31;;;2.95;92.67
17615;BME280;8926;49.720;6.576;2023-01-27T06:13:15;100243.75;;;2.96;92.52
17615;BME280;8926;49.720;6.576;2023-01-27T06:15:42;100238.59;;;2.96;92.20
17615;BME280;8926;49.720;6.576;2023-01-27T06:18:08;100241.13;;;2.99;93.05
17615;BME280;8926;49.720;6.576;2023-01-27T06:20:33;100241.97;;;3.01;92.99
17615;BME280;8926;49.720;6.576;2023-01-27T06:22:58;100250.53;;;3.03;92.95
17615;BME280;8926;49.720;6.576;2023-01-27T06:25:26;100248.81;;;3.02;92.37
17615;BME280;8926;49.720;6.576;2023-01-27T06:27:55;100255.69;;;3.03;92.92
17615;BME280;8926;49.720;6.576;2023-01-27T06:30:20;100259.09;;;3.05;92.25
17615;BME280;8926;49.720;6.576;2023-01-27T06:32:46;100259.03;;;3.08;92.82
17615;BME280;8926;49.720;6.576;2023-01-27T06:35:11;100258.16;;;3.09;91.66
17615;BME280;8926;49.720;6.576;2023-01-27T06:37:36;100267.53;;;3.13;92.66
17615;BME280;8926;49.720;6.576;2023-01-27T06:40:03;100261.50;;;3.14;91.74
17615;BME280;8926;49.720;6.576;2023-01-27T06:42:29;100258.84;;;3.17;92.16
17615;BME280;8926;49.720;6.576;2023-01-27T06:44:55;100262.25;;;3.19;92.42
17615;BME280;8926;49.720;6.576;2023-01-27T06:47:20;100265.78;;;3.15;91.62
17615;BME280;8926;49.720;6.576;2023-01-27T06:49:45;100264.06;;;3.14;91.96
17615;BME280;8926;49.720;6.576;2023-01-27T06:52:10;100267.47;;;3.16;92.55
17615;BME280;8926;49.720;6.576;2023-01-27T06:54:36;100265.78;;;3.15;92.60
17615;BME280;8926;49.720;6.576;2023-01-27T06:57:01;100262.31;;;3.16;92.54
17615;BME280;8926;49.720;6.576;2023-01-27T06:59:26;100269.16;;;3.19;92.10
17615;BME280;8926;49.720;6.576;2023-01-27T07:01:52;100270.00;;;3.19;92.48
17615;BME280;8926;49.720;6.576;2023-01-27T07:04:17;100276.91;;;3.19;92.41
17615;BME280;8926;49.720;6.576;2023-01-27T07:06:42;100269.19;;;3.17;92.40
17615;BME280;8926;49.720;6.576;2023-01-27T07:09:07;100270.88;;;3.18;92.23
17615;BME280;8926;49.720;6.576;2023-01-27T07:11:33;100263.97;;;3.20;93.04
17615;BME280;8926;49.720;6.576;2023-01-27T07:13:58;100276.91;;;3.19;92.25
17615;BME280;8926;49.720;6.576;2023-01-27T07:16:23;100276.00;;;3.21;92.57
17615;BME280;8926;49.720;6.576;2023-01-27T07:18:49;100272.59;;;3.19;92.04
17615;BME280;8926;49.720;6.576;2023-01-27T07:21:14;100285.50;;;3.19;92.35
17615;BME280;8926;49.720;6.576;2023-01-27T07:23:39;100281.16;;;3.21;92.01
17615;BME280;8926;49.720;6.576;2023-01-27T07:26:05;100274.25;;;3.23;92.17
17615;BME280;8926;49.720;6.576;2023-01-27T07:28:30;100283.66;;;3.26;92.31
17615;BME280;8926;49.720;6.576;2023-01-27T07:31:00;100276.75;;;3.28;91.99
17615;BME280;8926;49.720;6.576;2023-01-27T07:33:25;100282.69;;;3.31;92.66
17615;BME280;8926;49.720;6.576;2023-01-27T07:35:50;100288.72;;;3.32;92.17
17615;BME280;8926;49.720;6.576;2023-01-27T07:38:16;100281.81;;;3.32;91.52
17615;BME280;8926;49.720;6.576;2023-01-27T07:40:41;100289.56;;;3.32;92.10
17615;BME280;8926;49.720;6.576;2023-01-27T07:43:06;100293.91;;;3.30;91.64
17615;BME280;8926;49.720;6.576;2023-01-27T07:45:31;100291.38;;;3.27;91.22
17615;BME280;8926;49.720;6.576;2023-01-27T07:48:01;100296.53;;;3.27;91.38
17615;BME280;8926;49.720;6.576;2023-01-27T07:50:28;100300.81;;;3.28;92.13
17615;BME280;8926;49.720;6.576;2023-01-27T07:52:53;100305.94;;;3.31;92.71
17615;BME280;8926;49.720;6.576;2023-01-27T07:55:18;100305.91;;;3.33;91.44
17615;BME280;8926;49.720;6.576;2023-01-27T07:57:44;100310.19;;;3.34;92.07
17615;BME280;8926;49.720;6.576;2023-01-27T08:00:09;100305.03;;;3.34;92.08
17615;BME280;8926;49.720;6.576;2023-01-27T08:02:39;100306.66;;;3.38;92.43
17615;BME280;8926;49.720;6.576;2023-01-27T08:05:05;100314.38;;;3.39;92.31
17615;BME280;8926;49.720;6.576;2023-01-27T08:07:31;100316.97;;;3.39;90.77
17615;BME280;8926;49.720;6.576;2023-01-27T08:09:56;100314.47;;;3.36;90.99
17615;BME280;8926;49.720;6.576;2023-01-27T08:12:21;100315.31;;;3.37;91.00
17615;BME280;8926;49.720;6.576;2023-01-27T08:14:47;100320.38;;;3.41;92.03
17615;BME280;8926;49.720;6.576;2023-01-27T08:17:12;100316.81;;;3.47;92.11
17615;BME280;8926;49.720;6.576;2023-01-27T08:19:37;100326.22;;;3.51;91.64
17615;BME280;8926;49.720;6.576;2023-01-27T08:22:02;100327.94;;;3.52;91.42
17615;BME280;8926;49.720;6.576;2023-01-27T08:24:28;100320.16;;;3.54;91.35
17615;BME280;8926;49.720;6.576;2023-01-27T08:26:53;100327.94;;;3.52;90.29
17615;BME280;8926;49.720;6.576;2023-01-27T08:29:18;100332.28;;;3.50;90.88
17615;BME280;8926;49.720;6.576;2023-01-27T08:31:44;100329.72;;;3.49;90.37
17615;BME280;8926;49.720;6.576;2023-01-27T08:34:09;100332.25;;;3.52;90.65
17615;BME280;8926;49.720;6.576;2023-01-27T08:36:36;100330.47;;;3.54;91.08
17615;BME280;8926;49.720;6.576;2023-01-27T08:39:01;100338.13;;;3.60;90.78
17615;BME280;8926;49.720;6.576;2023-01-27T08:41:27;100327.75;;;3.63;90.11
17615;BME280;8926;49.720;6.576;2023-01-27T08:43:53;100328.53;;;3.65;90.91
17615;BME280;8926;49.720;6.576;2023-01-27T08:46:19;100334.53;;;3.67;90.48
17615;BME280;8926;49.720;6.576;2023-01-27T08:48:45;100332.75;;;3.69;90.46
17615;BME280;8926;49.720;6.576;2023-01-27T08:51:12;100333.59;;;3.71;90.04
17615;BME280;8926;49.720;6.576;2023-01-27T08:53:38;100330.06;;;3.75;90.03
17615;BME280;8926;49.720;6.576;2023-01-27T08:56:10;100331.78;;;3.76;89.99
17615;BME280;8926;49.720;6.576;2023-01-27T08:58:36;100336.13;;;3.74;90.03
17615;BME280;8926;49.720;6.576;2023-01-27T09:01:03;100324.97;;;3.72;89.68
17615;BME280;8926;49.720;6.576;2023-01-27T09:03:29;100334.38;;;3.74;89.78
17615;BME280;8926;49.720;6.576;2023-01-27T09:05:55;100336.09;;;3.75;90.51
17615;BME280;8926;49.720;6.576;2023-01-27T09:08:21;100342.06;;;3.79;90.15
17615;BME280;8926;49.720;6.576;2023-01-27T09:10:46;100339.31;;;3.87;90.44
17615;BME280;8926;49.720;6.576;2023-01-27T09:13:11;100340.91;;;3.92;89.25
17615;BME280;8926;49.720;6.576;2023-01-27T09:15:37;100340.84;;;3.95;89.52
17615;BME280;8926;49.720;6.576;2023-01-27T09:18:03;100351.19;;;3.95;89.41
17615;BME280;8926;49.720;6.576;2023-01-27T09:20:29;100342.56;;;3.96;89.67
17615;BME280;8926;49.720;6.576;2023-01-27T09:22:55;100353.72;;;3.98;89.45
17615;BME280;8926;49.720;6.576;2023-01-27T09:25:21;100352.84;;;3.99;89.19
17615;BME280;8926;49.720;6.576;2023-01-27T09:27:46;100356.28;;;4.00;89.12
17615;BME280;8926;49.720;6.576;2023-01-27T09:30:13;100360.63;;;3.98;88.99
17615;BME280;8926;49.720;6.576;2023-01-27T09:32:39;100362.28;;;4.00;89.13
17615;BME280;8926;49.720;6.576;2023-01-27T09:35:04;100360.59;;;3.99;89.75
17615;BME280;8926;49.720;6.576;2023-01-27T09:37:33;100358.06;;;3.96;88.64
17615;BME280;8926;49.720;6.576;2023-01-27T09:40:10;100361.38;;;4.03;89.71
17615;BME280;8926;49.720;6.576;2023-01-27T09:42:51;100362.06;;;4.13;88.98
17615;BME280;8926;49.720;6.576;2023-01-27T09:48:26;100365.53;;;4.12;89.55
17615;BME280;8926;49.720;6.576;2023-01-27T09:51:06;100377.56;;;4.13;88.52
17615;BME280;8926;49.720;6.576;2023-01-27T10:01:58;100381.03;;;4.12;89.29
17615;BME280;8926;49.720;6.576;2023-01-27T10:20:56;100381.94;;;4.49;87.73
17615;BME280;8926;49.720;6.576;2023-01-27T10:24:02;100379.50;;;4.82;86.54
17615;BME280;8926;49.720;6.576;2023-01-27T10:26:36;100378.22;;;5.35;84.81
17615;BME280;8926;49.720;6.576;2023-01-27T10:29:09;100381.31;;;5.47;84.37
17615;BME280;8926;49.720;6.576;2023-01-27T10:32:06;100384.75;;;5.48;83.61
17615;BME280;8926;49.720;6.576;2023-01-27T10:34:34;100367.47;;;5.49;83.44
17615;BME280;8926;49.720;6.576;2023-01-27T10:37:18;100389.09;;;5.47;84.18
17615;BME280;8926;49.720;6.576;2023-01-27T10:40:10;100381.44;;;5.44;83.95
17615;BME280;8926;49.720;6.576;2023-01-27T10:42:44;100387.53;;;5.42;84.60
17615;BME280;8926;49.720;6.576;2023-01-27T10:50:55;100381.56;;;5.04;84.91
17615;BME280;8926;49.720;6.576;2023-01-27T10:58:57;100377.22;;;5.05;85.14
17615;BME280;8926;49.720;6.576;2023-01-27T11:01:29;100377.25;;;5.03;84.81
17615;BME280;8926;49.720;6.576;2023-01-27T11:04:03;100375.59;;;5.01;85.23
17615;BME280;8926;49.720;6.576;2023-01-27T11:06:37;100372.91;;;5.05;85.37
17615;BME280;8926;49.720;6.576;2023-01-27T11:09:22;100373.34;;;5.21;84.45
17615;BME280;8926;49.720;6.576;2023-01-27T11:11:50;100368.91;;;5.26;85.15
17615;BME280;8926;49.720;6.576;2023-01-27T11:14:30;100387.06;;;5.26;84.42
17615;BME280;8926;49.720;6.576;2023-01-27T11:19:42;100377.00;;;5.14;83.89
17615;BME280;8926;49.720;6.576;2023-01-27T11:22:37;100387.47;;;5.09;84.33
17615;BME280;8926;49.720;6.576;2023-01-27T11:25:20;100387.56;;;5.05;84.33
17615;BME280;8926;49.720;6.576;2023-01-27T11:28:05;100380.56;;;5.10;84.70
17615;BME280;8926;49.720;6.576;2023-01-27T11:30:41;100369.97;;;5.19;84.35
17615;BME280;8926;49.720;6.576;2023-01-27T11:33:22;100371.81;;;5.14;83.92
17615;BME280;8926;49.720;6.576;2023-01-27T11:35:51;100376.13;;;5.15;84.17
17615;BME280;8926;49.720;6.576;2023-01-27T11:38:19;100371.66;;;5.20;83.68
17615;BME280;8926;49.720;6.576;2023-01-27T11:40:47;100350.50;;;5.38;84.79
17615;BME280;8926;49.720;6.576;2023-01-27T11:43:22;100362.13;;;5.55;83.99
17615;BME280;8926;49.720;6.576;2023-01-27T11:45:49;100363.69;;;5.62;83.34
17615;BME280;8926;49.720;6.576;2023-01-27T11:48:17;100365.19;;;5.70;82.24
17615;BME280;8926;49.720;6.576;2023-01-27T11:50:44;100354.75;;;5.72;82.24
17615;BME280;8926;49.720;6.576;2023-01-27T11:53:11;100352.97;;;5.74;82.43
17615;BME280;8926;49.720;6.576;2023-01-27T11:55:41;100356.38;;;5.76;81.64
17615;BME280;8926;49.720;6.576;2023-01-27T11:58:24;100349.56;;;5.72;81.70
17615;BME280;8926;49.720;6.576;2023-01-27T12:00:54;100344.25;;;5.76;82.08
17615;BME280;8926;49.720;6.576;2023-01-27T12:06:25;100339.03;;;5.78;81.57
17615;BME280;8926;49.720;6.576;2023-01-27T12:08:52;100340.91;;;5.73;81.69
17615;BME280;8926;49.720;6.576;2023-01-27T12:13:48;100346.28;;;5.67;82.57
17615;BME280;8926;49.720;6.576;2023-01-27T12:16:14;100344.50;;;5.69;82.54
17615;BME280;8926;49.720;6.576;2023-01-27T12:19:02;100343.59;;;5.70;82.33
17615;BME280;8926;49.720;6.576;2023-01-27T12:21:41;100335.56;;;5.79;82.74
17615;BME280;8926;49.720;6.576;2023-01-27T12:24:21;100337.19;;;5.83;81.67
17615;BME280;8926;49.720;6.576;2023-01-27T12:26:50;100331.69;;;5.95;82.35
17615;BME280;8926;49.720;6.576;2023-01-27T12:29:19;100324.59;;;6.00;81.77
17615;BME280;8926;49.720;6.576;2023-01-27T12:31:49;100326.06;;;6.10;81.40
17615;BME280;8926;49.720;6.576;2023-01-27T12:34:35;100325.41;;;6.32;80.41
17615;BME280;8926;49.720;6.576;2023-01-27T12:37:05;100324.22;;;6.43;80.34
17615;BME280;8926;49.720;6.576;2023-01-27T12:42:03;100328.53;;;6.15;78.92
17615;BME280;8926;49.720;6.576;2023-01-27T12:44:40;100313.25;;;6.04;79.81
17615;BME280;8926;49.720;6.576;2023-01-27T12:47:22;100321.31;;;5.95;80.14
17615;BME280;8926;49.720;6.576;2023-01-27T12:49:49;100307.09;;;6.08;80.83
17615;BME280;8926;49.720;6.576;2023-01-27T12:52:18;100307.97;;;6.07;79.09
17615;BME280;8926;49.720;6.576;2023-01-27T12:54:44;100300.97;;;6.11;79.36
17615;BME280;8926;49.720;6.576;2023-01-27T12:57:19;100303.00;;;6.00;79.45
17615;BME280;8926;49.720;6.576;2023-01-27T12:59:50;100305.75;;;5.95;80.16
17615;BME280;8926;49.720;6.576;2023-01-27T13:02:22;100311.94;;;5.91;80.00
17615;BME280;8926;49.720;6.576;2023-01-27T13:04:56;100307.84;;;5.81;80.31
17615;BME280;8926;49.720;6.576;2023-01-27T13:07:31;100313.19;;;5.75;80.79
17615;BME280;8926;49.720;6.576;2023-01-27T13:10:04;100311.63;;;5.71;80.70
17615;BME280;8926;49.720;6.576;2023-01-27T13:12:36;100310.00;;;5.67;80.49
17615;BME280;8926;49.720;6.576;2023-01-27T13:22:48;100304.81;;;5.67;81.46
17615;BME280;8926;49.720;6.576;2023-01-27T13:25:18;100304.44;;;5.79;81.67
17615;BME280;8926;49.720;6.576;2023-01-27T13:27:47;100309.25;;;5.94;81.36
17615;BME280;8926;49.720;6.576;2023-01-27T13:30:26;100305.22;;;6.13;81.07
17615;BME280;8926;49.720;6.576;2023-01-27T13:32:56;100300.03;;;6.13;80.58
17615;BME280;8926;49.720;6.576;2023-01-27T13:35:25;100299.94;;;6.17;81.26
17615;BME280;8926;49.720;6.576;2023-01-27T13:38:07;100301.78;;;6.41;80.72
17615;BME280;8926;49.720;6.576;2023-01-27T13:40:44;100306.00;;;6.45;81.21
17615;BME280;8926;49.720;6.576;2023-01-27T13:43:28;100301.34;;;6.27;80.86
17615;BME280;8926;49.720;6.576;2023-01-27T13:46:01;100303.03;;;6.28;80.48
17615;BME280;8926;49.720;6.576;2023-01-27T13:48:35;100307.81;;;6.13;80.87
17615;BME280;8926;49.720;6.576;2023-01-27T13:51:10;100308.78;;;6.09;80.86
17615;BME280;8926;49.720;6.576;2023-01-27T13:53:37;100310.94;;;5.95;80.48
17615;BME280;8926;49.720;6.576;2023-01-27T14:04:19;100324.25;;;5.51;82.23
17615;BME280;8926;49.720;6.576;2023-01-27T14:09:30;100329.59;;;5.44;80.45
17615;BME280;8926;49.720;6.576;2023-01-27T14:12:25;100335.03;;;5.35;81.21
17615;BME280;8926;49.720;6.576;2023-01-27T14:20:30;100339.13;;;5.10;80.71
17615;BME280;8926;49.720;6.576;2023-01-27T14:25:46;100350.34;;;5.10;81.21
17615;BME280;8926;49.720;6.576;2023-01-27T14:31:17;100354.63;;;5.11;80.95
17615;BME280;8926;49.720;6.576;2023-01-27T14:33:56;100346.81;;;5.13;80.51
17615;BME280;8926;49.720;6.576;2023-01-27T14:36:47;100355.50;;;5.10;80.19
17615;BME280;8926;49.720;6.576;2023-01-27T14:41:58;100357.19;;;5.13;79.38
17615;BME280;8926;49.720;6.576;2023-01-27T14:47:40;100369.31;;;5.11;79.17
17615;BME280;8926;49.720;6.576;2023-01-27T14:50:24;100371.13;;;5.07;78.58
17615;BME280;8926;49.720;6.576;2023-01-27T15:06:44;100392.06;;;4.97;79.70
17615;BME280;8926;49.720;6.576;2023-01-27T15:17:40;100400.91;;;4.90;80.38
17615;BME280;8926;49.720;6.576;2023-01-27T15:20:29;100405.19;;;4.91;80.82